Time;durP1;ratioP1;P1;durP2;ratioP2;P2;SDS_P1;SDS_P2;PMS_P1;PMS_P2;Temp;Humidity;BMP_temperature;BMP_pressure;BME280_temperature;BME280_humidity;BME280_pressure;Samples;Min_cycle;Max_cycle;Signal;HPM_P1;HPM_P2
2021/01/27 00:00:06;;;;;;;9.25;5.03;;;2.50;96.70;;;;;;4940609;28;20576;-70
2021/01/27 00:02:34;;;;;;;8.40;5.18;;;2.70;96.70;;;;;;4923171;29;20043;-69
2021/01/27 00:05:02;;;;;;;7.72;5.30;;;2.80;96.70;;;;;;4942609;28;20071;-70
2021/01/27 00:07:29;;;;;;;9.45;5.47;;;2.80;96.70;;;;;;4940541;28;20043;-70
2021/01/27 00:09:57;;;;;;;9.20;5.15;;;2.80;96.70;;;;;;4941359;28;20062;-70
2021/01/27 00:12:25;;;;;;;10.20;6.15;;;2.80;96.70;;;;;;4939018;28;20051;-70
2021/01/27 00:14:52;;;;;;;10.23;5.90;;;2.80;96.70;;;;;;4921374;28;20035;-70
2021/01/27 00:17:20;;;;;;;10.13;6.13;;;2.60;96.70;;;;;;4941135;28;20082;-70
2021/01/27 00:19:48;;;;;;;10.15;6.43;;;2.60;96.70;;;;;;4942334;28;20131;-70
2021/01/27 00:22:15;;;;;;;13.65;6.95;;;2.60;96.70;;;;;;4942044;28;20493;-69
2021/01/27 00:24:42;;;;;;;11.63;7.05;;;2.60;96.70;;;;;;4926544;29;20035;-70
2021/01/27 00:27:09;;;;;;;11.88;7.22;;;2.60;96.70;;;;;;4923875;28;20125;-70
2021/01/27 00:29:39;;;;;;;11.50;6.93;;;2.60;96.70;;;;;;4941785;28;20102;-69
2021/01/27 00:32:06;;;;;;;11.95;7.20;;;2.40;96.70;;;;;;4920214;29;20357;-69
2021/01/27 00:34:33;;;;;;;14.23;7.97;;;2.30;96.70;;;;;;4922193;29;20039;-69
2021/01/27 00:37:00;;;;;;;10.77;6.65;;;2.40;96.70;;;;;;4941184;28;20043;-69
2021/01/27 00:39:28;;;;;;;10.52;6.45;;;2.40;96.70;;;;;;4925874;28;20191;-69
2021/01/27 00:41:55;;;;;;;11.52;6.75;;;2.40;96.70;;;;;;4939207;28;20047;-69
2021/01/27 00:44:22;;;;;;;11.40;6.40;;;2.30;96.70;;;;;;4922317;28;20146;-69
2021/01/27 00:46:50;;;;;;;10.77;5.88;;;2.30;96.70;;;;;;4935099;28;20055;-69
2021/01/27 00:49:18;;;;;;;9.82;5.30;;;2.40;96.70;;;;;;4942042;28;20107;-69
2021/01/27 00:51:45;;;;;;;8.68;5.53;;;2.30;96.70;;;;;;4922659;28;20471;-70
2021/01/27 00:54:12;;;;;;;10.48;5.10;;;2.20;96.70;;;;;;4921607;28;20524;-70
2021/01/27 00:56:41;;;;;;;8.77;4.70;;;2.30;96.70;;;;;;4916772;28;20043;-70
2021/01/27 00:59:08;;;;;;;9.50;4.57;;;2.30;96.70;;;;;;4942150;28;20445;-70
2021/01/27 01:01:39;;;;;;;10.35;5.30;;;2.20;96.70;;;;;;4940828;28;20051;-70
2021/01/27 01:04:14;;;;;;;6.50;4.53;;;2.30;96.70;;;;;;4921871;28;20601;-70
2021/01/27 01:06:42;;;;;;;9.95;5.65;;;2.30;96.70;;;;;;4941619;28;20061;-70
2021/01/27 01:09:09;;;;;;;9.30;5.22;;;2.30;96.70;;;;;;4941424;28;20090;-70
2021/01/27 01:11:36;;;;;;;8.68;4.97;;;2.30;96.70;;;;;;4941059;28;20469;-70
2021/01/27 01:14:03;;;;;;;9.68;5.38;;;2.40;96.70;;;;;;4942349;28;20564;-70
2021/01/27 01:16:30;;;;;;;8.55;4.82;;;2.30;96.70;;;;;;4942764;28;20145;-69
2021/01/27 01:18:58;;;;;;;9.25;5.10;;;2.30;96.70;;;;;;4921176;29;20040;-69
2021/01/27 01:21:26;;;;;;;9.40;5.22;;;2.30;96.70;;;;;;4924755;28;20685;-69
2021/01/27 01:23:53;;;;;;;7.68;4.60;;;2.40;96.70;;;;;;4940762;28;20496;-69
2021/01/27 01:26:21;;;;;;;10.45;5.60;;;2.30;96.70;;;;;;4923635;28;20043;-70
2021/01/27 01:28:49;;;;;;;8.60;4.68;;;2.20;96.70;;;;;;4915470;28;20071;-70
2021/01/27 01:31:16;;;;;;;8.80;4.90;;;2.20;96.70;;;;;;4941564;28;20039;-70
2021/01/27 01:33:44;;;;;;;8.52;4.90;;;2.20;96.70;;;;;;4937810;28;20070;-69
2021/01/27 01:36:11;;;;;;;7.93;5.03;;;2.10;96.70;;;;;;4923465;28;20114;-69
2021/01/27 01:38:39;;;;;;;8.07;4.80;;;2.20;96.70;;;;;;4942569;28;20048;-69
2021/01/27 01:41:07;;;;;;;6.45;4.70;;;2.00;96.70;;;;;;4938570;28;20162;-69
2021/01/27 01:43:36;;;;;;;8.05;5.13;;;2.10;96.70;;;;;;4923267;29;20043;-69
2021/01/27 01:46:09;;;;;;;9.20;5.43;;;2.10;96.70;;;;;;4923782;29;20123;-70
2021/01/27 01:48:41;;;;;;;6.18;4.95;;;2.00;96.70;;;;;;4918514;29;20043;-70
2021/01/27 01:51:14;;;;;;;8.18;4.97;;;2.00;96.70;;;;;;4940784;28;20070;-70
2021/01/27 01:53:43;;;;;;;9.38;4.85;;;2.00;96.70;;;;;;4941235;29;20071;-70
2021/01/27 01:56:15;;;;;;;9.10;4.78;;;2.00;96.70;;;;;;4940800;28;20035;-69
2021/01/27 01:58:43;;;;;;;7.43;4.45;;;2.10;96.70;;;;;;4940570;28;20578;-70
2021/01/27 02:01:10;;;;;;;7.35;4.15;;;2.00;96.70;;;;;;4921865;28;20043;-70
2021/01/27 02:03:39;;;;;;;7.88;4.35;;;2.10;96.70;;;;;;4940136;28;20048;-70
2021/01/27 02:06:09;;;;;;;8.95;4.10;;;2.10;96.70;;;;;;4940247;28;20457;-70
2021/01/27 02:08:38;;;;;;;6.40;3.85;;;2.00;96.70;;;;;;4940076;28;20134;-70
2021/01/27 02:11:06;;;;;;;7.15;3.90;;;2.00;96.70;;;;;;4923628;29;20520;-70
2021/01/27 02:13:53;;;;;;;7.65;4.10;;;2.00;96.70;;;;;;4925890;29;20054;-70
2021/01/27 02:16:24;;;;;;;;;;;2.00;96.70;;;;;;4944445;28;20036;-70
2021/01/27 02:19:31;;;;;;;5.72;3.67;;;2.00;96.70;;;;;;4925890;28;20015;-70
2021/01/27 02:22:26;;;;;;;6.25;3.83;;;2.10;96.70;;;;;;4927182;28;20556;-70
2021/01/27 02:25:20;;;;;;;7.15;4.40;;;2.00;96.70;;;;;;4945428;28;20039;-70
2021/01/27 02:27:51;;;;;;;6.00;3.80;;;2.00;96.70;;;;;;4926125;29;20047;-70
2021/01/27 02:30:39;;;;;;;6.38;4.25;;;2.00;96.70;;;;;;4925768;29;20141;-70
2021/01/27 02:33:30;;;;;;;8.32;4.18;;;1.90;96.70;;;;;;4943221;28;20096;-70
2021/01/27 02:36:07;;;;;;;7.10;4.25;;;1.70;96.70;;;;;;4905050;29;20094;-70
2021/01/27 02:38:37;;;;;;;5.40;3.80;;;1.70;96.70;;;;;;4942628;28;20047;-70
2021/01/27 02:41:13;;;;;;;10.15;5.05;;;1.70;96.70;;;;;;4940271;28;20103;-70
2021/01/27 02:43:42;;;;;;;8.55;4.50;;;1.70;96.70;;;;;;4945279;28;20686;-70
2021/01/27 02:46:13;;;;;;;6.70;4.50;;;1.70;96.70;;;;;;4941031;28;20533;-70
2021/01/27 02:48:46;;;;;;;7.57;4.22;;;1.60;96.70;;;;;;4942581;28;20043;-70
2021/01/27 02:51:20;;;;;;;6.32;4.45;;;1.70;96.70;;;;;;4923665;28;20061;-69
2021/01/27 02:53:52;;;;;;;8.40;4.53;;;1.70;96.70;;;;;;4944471;28;20047;-69
2021/01/27 02:56:25;;;;;;;9.40;5.53;;;1.80;96.70;;;;;;4907504;29;20410;-69
2021/01/27 02:59:00;;;;;;;8.18;5.05;;;1.70;96.70;;;;;;4940649;28;20051;-69
2021/01/27 03:01:36;;;;;;;7.93;4.38;;;1.70;96.70;;;;;;4908576;29;20043;-70
2021/01/27 03:04:08;;;;;;;6.75;4.20;;;1.60;96.70;;;;;;4920051;29;20118;-70
2021/01/27 03:06:40;;;;;;;5.60;3.70;;;1.70;96.70;;;;;;4942918;28;20142;-69
2021/01/27 03:09:12;;;;;;;6.00;3.40;;;1.70;96.70;;;;;;4926260;29;20044;-69
2021/01/27 03:11:39;;;;;;;6.15;3.20;;;1.70;96.70;;;;;;4942943;28;20098;-69
2021/01/27 03:14:08;;;;;;;7.30;3.55;;;1.60;96.70;;;;;;4942947;28;20393;-69
2021/01/27 03:16:39;;;;;;;7.03;4.10;;;1.70;96.70;;;;;;4910332;29;20509;-69
2021/01/27 03:19:10;;;;;;;7.35;3.63;;;1.70;96.70;;;;;;4922446;28;20513;-69
2021/01/27 03:21:43;;;;;;;7.78;3.25;;;1.60;96.70;;;;;;4941676;28;20412;-69
2021/01/27 03:24:18;;;;;;;4.90;3.30;;;1.50;96.70;;;;;;4943231;28;20312;-69
2021/01/27 03:26:54;;;;;;;5.30;2.80;;;1.50;96.70;;;;;;4942986;28;20058;-70
2021/01/27 03:29:32;;;;;;;4.30;2.72;;;1.50;96.70;;;;;;4942029;28;20051;-69
2021/01/27 03:32:04;;;;;;;4.90;2.88;;;1.60;96.70;;;;;;4940508;28;20386;-69
2021/01/27 03:34:38;;;;;;;5.50;3.00;;;1.60;96.70;;;;;;4925230;29;21147;-69
2021/01/27 03:37:11;;;;;;;6.43;2.67;;;1.50;96.70;;;;;;4938075;28;20047;-70
2021/01/27 03:39:41;;;;;;;5.43;2.90;;;1.40;96.70;;;;;;4942671;28;20460;-70
2021/01/27 03:42:14;;;;;;;5.80;3.25;;;1.40;96.70;;;;;;4941566;28;20054;-70
2021/01/27 03:44:47;;;;;;;4.82;2.90;;;1.30;96.70;;;;;;4942018;28;20359;-70
2021/01/27 03:47:19;;;;;;;4.55;2.38;;;1.30;96.70;;;;;;4940295;28;20074;-70
2021/01/27 03:49:54;;;;;;;4.63;3.10;;;1.20;96.70;;;;;;4918299;29;20039;-70
2021/01/27 03:52:28;;;;;;;6.40;3.20;;;1.20;96.70;;;;;;4939412;28;20059;-70
2021/01/27 03:55:00;;;;;;;6.53;3.55;;;1.20;96.70;;;;;;4942626;28;20450;-70
2021/01/27 03:57:30;;;;;;;6.25;4.05;;;1.30;96.70;;;;;;4919365;28;20233;-70
2021/01/27 03:59:57;;;;;;;6.53;3.53;;;1.30;96.70;;;;;;4942145;28;20102;-70
2021/01/27 04:02:25;;;;;;;6.03;3.45;;;1.30;96.70;;;;;;4940232;28;20058;-70
2021/01/27 04:04:52;;;;;;;5.18;3.15;;;1.30;96.70;;;;;;4922056;28;20043;-70
2021/01/27 04:07:19;;;;;;;6.25;3.90;;;1.20;96.70;;;;;;4940054;28;20055;-70
2021/01/27 04:09:48;;;;;;;5.72;3.13;;;1.30;96.70;;;;;;4943640;29;20046;-70
2021/01/27 04:12:15;;;;;;;5.63;3.20;;;1.30;96.70;;;;;;4941142;28;20050;-70
2021/01/27 04:14:42;;;;;;;6.68;4.03;;;1.20;96.70;;;;;;4939349;28;20131;-70
2021/01/27 04:17:12;;;;;;;5.47;3.38;;;1.20;96.70;;;;;;4920028;28;20043;-70
2021/01/27 04:19:40;;;;;;;5.60;3.30;;;1.30;96.70;;;;;;4941584;28;20509;-70
2021/01/27 04:22:07;;;;;;;5.47;3.50;;;1.30;96.70;;;;;;4933606;28;20069;-70
2021/01/27 04:24:34;;;;;;;5.85;3.58;;;1.30;96.70;;;;;;4941165;28;20042;-70
2021/01/27 04:27:02;;;;;;;4.25;3.05;;;1.30;96.70;;;;;;4924220;29;20058;-70
2021/01/27 04:29:29;;;;;;;7.43;3.55;;;1.20;96.70;;;;;;4941566;28;20055;-70
2021/01/27 04:31:57;;;;;;;6.05;3.58;;;1.20;96.70;;;;;;4942380;28;20050;-70
2021/01/27 04:34:24;;;;;;;6.60;3.80;;;1.20;96.70;;;;;;4943290;28;20177;-70
2021/01/27 04:36:51;;;;;;;6.32;4.03;;;1.20;96.70;;;;;;4941025;28;20035;-70
2021/01/27 04:39:18;;;;;;;6.13;3.55;;;1.20;96.70;;;;;;4940784;28;20043;-70
2021/01/27 04:41:46;;;;;;;4.97;3.40;;;1.20;96.70;;;;;;4941589;28;20051;-70
2021/01/27 04:44:14;;;;;;;6.05;3.78;;;1.30;96.70;;;;;;4944001;28;20043;-70
2021/01/27 04:46:57;;;;;;;5.22;3.58;;;1.30;96.70;;;;;;4940820;28;20134;-70
2021/01/27 04:49:28;;;;;;;6.65;3.80;;;1.30;96.70;;;;;;4924876;28;20489;-70
2021/01/27 04:52:04;;;;;;;5.68;3.60;;;1.30;96.70;;;;;;4924914;28;20053;-68
2021/01/27 04:54:46;;;;;;;5.30;3.50;;;1.20;96.70;;;;;;4923105;28;20102;-70
2021/01/27 04:57:27;;;;;;;5.82;3.60;;;1.20;96.70;;;;;;4940866;28;20126;-70
2021/01/27 05:00:09;;;;;;;5.13;3.67;;;1.20;96.70;;;;;;4937794;28;20039;-70
2021/01/27 05:02:52;;;;;;;5.28;3.70;;;1.20;96.70;;;;;;4940825;28;20047;-70
2021/01/27 05:05:27;;;;;;;6.20;4.32;;;1.20;96.70;;;;;;4902377;29;20052;-70
2021/01/27 05:08:03;;;;;;;7.13;3.95;;;1.20;96.70;;;;;;4922839;29;20092;-70
2021/01/27 05:10:37;;;;;;;7.72;3.83;;;1.20;96.70;;;;;;4921822;28;20047;-70
2021/01/27 05:13:17;;;;;;;6.60;3.75;;;1.00;96.70;;;;;;4942047;28;20039;-70
2021/01/27 05:15:47;;;;;;;6.25;3.47;;;1.00;96.70;;;;;;4917646;29;20525;-70
2021/01/27 05:18:15;;;;;;;6.55;3.30;;;1.10;96.70;;;;;;4940699;28;20529;-70
2021/01/27 05:20:43;;;;;;;6.65;3.97;;;1.10;96.70;;;;;;4939584;28;20442;-70
2021/01/27 05:23:10;;;;;;;4.90;3.13;;;0.90;96.70;;;;;;4921911;28;20079;-70
2021/01/27 05:25:43;;;;;;;5.88;3.88;;;0.60;96.70;;;;;;4921428;29;20092;-70
2021/01/27 05:28:15;;;;;;;5.72;3.58;;;0.70;96.70;;;;;;4940691;28;20047;-70
2021/01/27 05:30:50;;;;;;;6.32;3.28;;;0.80;96.70;;;;;;4940033;28;20272;-70
2021/01/27 05:33:18;;;;;;;5.95;3.40;;;1.00;96.70;;;;;;4921824;28;20051;-70
2021/01/27 05:35:47;;;;;;;7.05;4.15;;;1.10;96.70;;;;;;4940116;28;20323;-70
2021/01/27 05:38:25;;;;;;;6.40;4.15;;;1.00;96.70;;;;;;4924188;29;20083;-70
2021/01/27 05:41:04;;;;;;;7.18;3.47;;;1.10;96.70;;;;;;4918307;28;20054;-70
2021/01/27 05:43:32;;;;;;;5.93;3.58;;;0.90;96.70;;;;;;4927326;28;20671;-70
2021/01/27 05:46:13;;;;;;;7.65;4.10;;;0.90;96.70;;;;;;4944918;28;20172;-70
2021/01/27 05:48:44;;;;;;;6.45;4.05;;;0.90;96.70;;;;;;4944266;28;20531;-70
2021/01/27 05:51:14;;;;;;;6.07;3.80;;;1.00;96.70;;;;;;4927198;29;20050;-70
2021/01/27 05:53:42;;;;;;;5.43;3.25;;;1.10;96.70;;;;;;4943203;28;20067;-70
2021/01/27 05:56:17;;;;;;;5.90;3.50;;;1.10;96.70;;;;;;4939238;28;20036;-71
2021/01/27 05:58:56;;;;;;;9.63;3.60;;;0.90;96.70;;;;;;4927021;28;20142;-71
2021/01/27 06:01:35;;;;;;;5.18;3.25;;;0.80;96.70;;;;;;4906645;29;20330;-70
2021/01/27 06:04:17;;;;;;;5.63;3.28;;;0.80;96.70;;;;;;4924688;29;20533;-70
2021/01/27 06:06:57;;;;;;;6.85;3.70;;;1.00;96.70;;;;;;4942490;28;20047;-70
2021/01/27 06:09:40;;;;;;;7.22;3.35;;;1.00;96.70;;;;;;4943995;28;20039;-70
2021/01/27 06:12:13;;;;;;;5.40;3.38;;;1.00;96.70;;;;;;4942825;28;20489;-70
2021/01/27 06:14:41;;;;;;;7.15;3.40;;;1.00;96.70;;;;;;4939903;28;20475;-71
2021/01/27 06:17:24;;;;;;;7.32;3.80;;;1.00;96.70;;;;;;4941787;28;20039;-70
2021/01/27 06:20:13;;;;;;;5.57;3.47;;;1.10;96.70;;;;;;4923668;28;20047;-70
2021/01/27 06:23:07;;;;;;;7.80;4.03;;;1.00;96.70;;;;;;4921951;29;20109;-70
2021/01/27 06:25:51;;;;;;;5.93;3.72;;;0.90;96.70;;;;;;4924446;28;20125;-70
2021/01/27 06:28:31;;;;;;;7.75;3.88;;;0.90;96.70;;;;;;4943666;28;20145;-70
2021/01/27 06:31:11;;;;;;;8.82;4.15;;;0.90;96.70;;;;;;4944543;28;20506;-70
2021/01/27 06:33:55;;;;;;;6.97;5.03;;;0.90;96.70;;;;;;4926529;28;20039;-70
2021/01/27 06:36:34;;;;;;;11.32;5.95;;;0.90;96.70;;;;;;4940271;28;20126;-71
2021/01/27 06:39:20;;;;;;;12.30;5.53;;;0.90;96.70;;;;;;4938934;28;20051;-71
2021/01/27 06:42:01;;;;;;;21.83;9.47;;;0.90;96.70;;;;;;4939070;29;20050;-70
2021/01/27 06:44:43;;;;;;;11.65;5.43;;;0.90;96.70;;;;;;4927841;28;20071;-70
2021/01/27 06:47:24;;;;;;;9.63;4.60;;;0.90;96.70;;;;;;4926681;28;20043;-69
2021/01/27 06:50:04;;;;;;;8.55;5.00;;;0.90;96.70;;;;;;4944310;28;20126;-69
2021/01/27 06:52:56;;;;;;;6.70;3.45;;;1.00;96.70;;;;;;4941021;28;20505;-70
2021/01/27 06:55:35;;;;;;;7.20;3.95;;;0.90;96.70;;;;;;4941255;28;20345;-71
2021/01/27 06:58:17;;;;;;;7.60;4.88;;;0.90;96.70;;;;;;4941169;28;20043;-70
2021/01/27 07:01:03;;;;;;;8.10;4.97;;;1.00;96.70;;;;;;4938566;28;20047;-70
2021/01/27 07:03:59;;;;;;;7.45;4.80;;;1.00;96.70;;;;;;4925925;28;20134;-72
2021/01/27 07:06:47;;;;;;;8.63;4.47;;;0.90;96.70;;;;;;4941067;28;20239;-72
2021/01/27 07:09:33;;;;;;;7.18;3.80;;;0.90;96.70;;;;;;4919556;28;20397;-71
2021/01/27 07:12:11;;;;;;;6.45;3.38;;;0.80;96.70;;;;;;4943059;28;20157;-71
2021/01/27 07:15:05;;;;;;;8.00;4.05;;;0.80;96.70;;;;;;4942857;28;20405;-71
2021/01/27 07:18:01;;;;;;;6.85;3.85;;;1.00;96.70;;;;;;4907301;29;20106;-70
2021/01/27 07:20:33;;;;;;;6.80;3.67;;;1.10;96.70;;;;;;4922626;28;20298;-71
2021/01/27 07:23:09;;;;;;;6.22;3.35;;;1.10;96.70;;;;;;4932230;28;20584;-71
2021/01/27 07:25:51;;;;;;;;;;;1.00;96.70;;;;;;4941867;28;20055;-71
2021/01/27 07:28:24;;;;;;;6.25;2.90;;;1.00;96.70;;;;;;4917327;28;19930;-70
2021/01/27 07:31:00;;;;;;;7.10;2.90;;;1.10;96.70;;;;;;4921783;28;20150;-71
2021/01/27 07:33:37;;;;;;;4.53;2.90;;;1.10;96.70;;;;;;4926239;29;20085;-70
2021/01/27 07:36:16;;;;;;;5.35;3.08;;;1.20;96.70;;;;;;4925696;29;20094;-70
2021/01/27 07:38:46;;;;;;;6.20;2.80;;;1.30;96.70;;;;;;4940678;28;20054;-70
2021/01/27 07:41:19;;;;;;;5.28;3.35;;;1.50;96.70;;;;;;4924766;29;20051;-70
2021/01/27 07:43:54;;;;;;;4.57;3.00;;;1.50;96.70;;;;;;4942776;28;20051;-70
2021/01/27 07:46:30;;;;;;;10.30;6.18;;;1.50;96.70;;;;;;4927225;28;20071;-70
2021/01/27 07:49:03;;;;;;;11.10;5.68;;;1.50;96.70;;;;;;4925486;29;20070;-70
2021/01/27 07:51:36;;;;;;;8.52;4.70;;;1.50;96.70;;;;;;4910249;28;20051;-70
2021/01/27 07:54:09;;;;;;;7.65;3.80;;;1.50;96.70;;;;;;4915079;28;20445;-70
2021/01/27 07:56:42;;;;;;;7.22;4.07;;;1.50;96.70;;;;;;4896062;28;20058;-70
2021/01/27 07:59:14;;;;;;;7.45;3.83;;;1.50;96.70;;;;;;4912351;28;20527;-71
2021/01/27 08:01:44;;;;;;;9.60;4.40;;;1.60;96.70;;;;;;4897004;28;20047;-70
2021/01/27 08:04:24;;;;;;;8.02;3.50;;;1.70;96.70;;;;;;4912319;28;20414;-70
2021/01/27 08:06:54;;;;;;;5.63;3.13;;;1.80;96.70;;;;;;4913609;28;20055;-71
2021/01/27 08:09:29;;;;;;;5.60;3.50;;;1.90;96.70;;;;;;4912965;28;20154;-70
2021/01/27 08:12:13;;;;;;;5.15;3.55;;;1.90;96.70;;;;;;4914463;28;20475;-70
2021/01/27 08:14:57;;;;;;;5.53;3.30;;;1.90;96.70;;;;;;4913271;28;20465;-70
2021/01/27 08:17:59;;;;;;;7.47;4.53;;;2.00;96.70;;;;;;4913503;28;20043;-70
2021/01/27 08:20:31;;;;;;;5.88;3.58;;;1.80;96.70;;;;;;4895857;28;20059;-70
2021/01/27 08:23:00;;;;;;;4.07;2.58;;;1.80;96.70;;;;;;4895674;28;20051;-70
2021/01/27 08:25:52;;;;;;;6.35;3.47;;;1.90;96.70;;;;;;4913013;28;20043;-70
2021/01/27 08:28:25;;;;;;;5.28;3.47;;;1.90;96.70;;;;;;4913209;28;22209;-70
2021/01/27 08:31:17;;;;;;;5.13;3.50;;;2.00;96.70;;;;;;4913950;28;20378;-70
2021/01/27 08:33:55;;;;;;;7.45;3.72;;;2.10;96.70;;;;;;4894075;28;20082;-71
2021/01/27 08:36:58;;;;;;;6.80;3.35;;;2.20;96.70;;;;;;4912340;28;20646;-70
2021/01/27 08:39:25;;;;;;;6.20;3.55;;;2.20;96.70;;;;;;4915236;28;20134;-71
2021/01/27 08:41:59;;;;;;;6.47;3.60;;;2.30;96.70;;;;;;4925543;28;20130;-71
2021/01/27 08:44:32;;;;;;;5.72;3.95;;;2.40;96.70;;;;;;4942901;28;20465;-71
2021/01/27 08:47:17;;;;;;;8.02;4.30;;;2.40;96.70;;;;;;4923338;29;20138;-70
2021/01/27 08:49:49;;;;;;;7.88;4.10;;;2.60;96.70;;;;;;4942264;28;20047;-70
2021/01/27 08:52:40;;;;;;;6.28;4.40;;;2.70;96.70;;;;;;4941382;28;20082;-70
2021/01/27 08:55:31;;;;;;;7.55;4.32;;;2.70;96.70;;;;;;4920366;29;20600;-71
2021/01/27 08:58:18;;;;;;;6.05;3.97;;;2.80;96.70;;;;;;4941280;28;20043;-70
2021/01/27 09:00:46;;;;;;;5.82;3.95;;;3.00;96.70;;;;;;4923460;28;20047;-71
2021/01/27 09:03:44;;;;;;;6.60;3.80;;;3.00;96.70;;;;;;4940086;28;20075;-72
2021/01/27 09:06:25;;;;;;;7.32;3.70;;;3.10;96.70;;;;;;4922958;29;20138;-72
2021/01/27 09:08:53;;;;;;;7.60;4.15;;;3.30;96.70;;;;;;4941715;28;20110;-71
2021/01/27 09:11:21;;;;;;;6.18;3.50;;;3.40;96.70;;;;;;4920114;28;20048;-71
2021/01/27 09:13:49;;;;;;;5.32;3.28;;;3.50;96.70;;;;;;4921764;28;20043;-70
2021/01/27 09:16:19;;;;;;;5.07;3.22;;;3.50;96.70;;;;;;4925403;28;20122;-71
2021/01/27 09:18:55;;;;;;;8.20;3.25;;;3.50;96.70;;;;;;4941617;28;20097;-71
2021/01/27 09:21:23;;;;;;;5.25;3.47;;;3.40;96.00;;;;;;4924095;29;20122;-70
2021/01/27 09:23:57;;;;;;;5.28;3.08;;;3.50;96.30;;;;;;4922340;28;20043;-71
2021/01/27 09:26:38;;;;;;;7.90;3.53;;;3.60;96.30;;;;;;4914048;29;20051;-71
2021/01/27 09:29:10;;;;;;;6.47;3.47;;;3.60;96.30;;;;;;4920347;28;20131;-71
2021/01/27 09:31:38;;;;;;;7.88;3.83;;;3.70;95.90;;;;;;4942281;28;20613;-71
2021/01/27 09:34:22;;;;;;;6.80;3.47;;;3.90;96.00;;;;;;4917477;29;20059;-71
2021/01/27 09:36:53;;;;;;;5.45;3.17;;;4.00;95.80;;;;;;4894467;28;20586;-71
2021/01/27 09:39:26;;;;;;;5.70;3.65;;;4.10;95.50;;;;;;4893819;29;20095;-71
2021/01/27 09:41:56;;;;;;;6.38;4.03;;;4.20;95.20;;;;;;4893979;28;20509;-71
2021/01/27 09:44:33;;;;;;;7.28;3.42;;;4.30;94.90;;;;;;4878526;29;20043;-72
2021/01/27 09:47:07;;;;;;;5.90;3.50;;;4.30;94.60;;;;;;4909283;28;20043;-70
2021/01/27 09:49:39;;;;;;;4.72;3.42;;;4.40;94.90;;;;;;4909143;28;20039;-71
2021/01/27 09:52:10;;;;;;;4.72;3.30;;;4.40;94.50;;;;;;4905821;28;20067;-71
2021/01/27 09:54:40;;;;;;;5.80;3.88;;;4.50;94.10;;;;;;4905668;28;20052;-71
2021/01/27 09:57:10;;;;;;;6.10;3.80;;;4.50;94.10;;;;;;4908225;28;20687;-72
2021/01/27 09:59:39;;;;;;;6.65;3.85;;;4.60;94.00;;;;;;4909951;28;20059;-72
2021/01/27 10:02:11;;;;;;;6.13;3.45;;;4.70;93.80;;;;;;4893160;28;20159;-71
2021/01/27 10:04:39;;;;;;;7.25;4.20;;;4.80;93.50;;;;;;4905642;28;20051;-72
2021/01/27 10:07:12;;;;;;;5.70;3.83;;;4.80;93.40;;;;;;4893982;28;20470;-71
2021/01/27 10:09:44;;;;;;;5.47;3.72;;;4.90;92.90;;;;;;4904050;28;20039;-71
2021/01/27 10:12:22;;;;;;;7.88;3.97;;;4.90;92.90;;;;;;4920483;28;20043;-71
2021/01/27 10:14:58;;;;;;;6.20;3.63;;;5.00;92.90;;;;;;4924122;28;20047;-72
2021/01/27 10:17:29;;;;;;;6.22;3.80;;;5.10;91.90;;;;;;4922044;29;20741;-71
2021/01/27 10:20:17;;;;;;;8.73;3.90;;;5.30;91.90;;;;;;4924126;28;20047;-73
2021/01/27 10:22:55;;;;;;;7.03;3.83;;;5.50;91.30;;;;;;4914337;29;20055;-71
2021/01/27 10:25:26;;;;;;;5.95;3.72;;;5.70;91.00;;;;;;4922959;28;20037;-70
2021/01/27 10:28:05;;;;;;;5.22;3.60;;;6.00;90.60;;;;;;4941467;28;20129;-71
2021/01/27 10:30:47;;;;;;;5.82;3.78;;;6.20;90.20;;;;;;4930033;28;20313;-71
2021/01/27 10:33:30;;;;;;;8.52;3.30;;;6.20;89.70;;;;;;4945065;28;20461;-71
2021/01/27 10:35:58;;;;;;;5.68;3.67;;;6.10;89.00;;;;;;4943506;28;20050;-71
2021/01/27 10:38:26;;;;;;;4.68;3.20;;;6.10;88.70;;;;;;4926236;29;20039;-70
2021/01/27 10:41:05;;;;;;;4.45;3.28;;;6.20;88.10;;;;;;4926443;28;20051;-71
2021/01/27 10:43:33;;;;;;;5.40;3.60;;;6.20;89.60;;;;;;4924489;29;20082;-71
2021/01/27 10:46:19;;;;;;;4.65;3.33;;;6.20;89.80;;;;;;4943685;28;20469;-71
2021/01/27 10:48:46;;;;;;;10.95;3.92;;;6.10;89.60;;;;;;4943566;28;20486;-71
2021/01/27 10:51:14;;;;;;;5.75;3.05;;;6.00;89.20;;;;;;4941421;28;20039;-71
2021/01/27 10:53:44;;;;;;;4.63;3.17;;;6.10;89.90;;;;;;4921967;29;20051;-71
2021/01/27 10:56:13;;;;;;;5.85;3.10;;;6.20;89.00;;;;;;4942948;28;20039;-71
2021/01/27 10:58:41;;;;;;;4.80;3.08;;;6.40;89.40;;;;;;4918961;28;20515;-71
2021/01/27 11:01:09;;;;;;;4.53;2.72;;;6.50;89.20;;;;;;4941816;28;20520;-71
2021/01/27 11:03:37;;;;;;;5.43;2.80;;;6.60;86.90;;;;;;4942506;28;20059;-70
2021/01/27 11:06:05;;;;;;;4.88;2.75;;;6.90;87.10;;;;;;4942506;28;20039;-71
2021/01/27 11:08:34;;;;;;;5.15;3.47;;;7.10;85.70;;;;;;4926979;29;20035;-72
2021/01/27 11:11:04;;;;;;;5.60;4.25;;;7.10;86.40;;;;;;4906587;29;20035;-72
2021/01/27 11:13:34;;;;;;;8.57;4.40;;;7.10;87.70;;;;;;4943813;28;20520;-71
2021/01/27 11:16:02;;;;;;;5.20;3.28;;;7.30;87.90;;;;;;4942930;28;20039;-70
2021/01/27 11:18:30;;;;;;;5.50;3.03;;;7.40;86.70;;;;;;4927591;28;20043;-70
2021/01/27 11:20:58;;;;;;;6.03;3.15;;;7.40;84.40;;;;;;4917849;28;20509;-71
2021/01/27 11:23:25;;;;;;;6.80;3.15;;;7.50;86.00;;;;;;4944042;28;20051;-71
2021/01/27 11:25:53;;;;;;;5.28;3.75;;;7.60;85.20;;;;;;4943503;28;20489;-71
2021/01/27 11:28:21;;;;;;;8.30;3.90;;;7.70;83.60;;;;;;4942449;28;20055;-71
2021/01/27 11:30:49;;;;;;;5.13;2.78;;;7.70;85.30;;;;;;4924855;29;20065;-70
2021/01/27 11:33:22;;;;;;;4.03;2.47;;;7.80;83.00;;;;;;4926148;28;20174;-71
2021/01/27 11:35:51;;;;;;;7.70;5.13;;;7.90;81.50;;;;;;4942801;28;20098;-71
2021/01/27 11:38:19;;;;;;;3.83;2.45;;;8.10;81.10;;;;;;4943179;28;20134;-71
2021/01/27 11:40:47;;;;;;;4.95;2.47;;;8.20;80.20;;;;;;4925268;28;20043;-71
2021/01/27 11:43:15;;;;;;;4.95;2.45;;;8.40;78.10;;;;;;4942881;28;20102;-71
2021/01/27 11:45:43;;;;;;;2.75;1.80;;;8.50;78.20;;;;;;4926202;28;20042;-71
2021/01/27 11:48:31;;;;;;;3.13;1.75;;;8.60;76.60;;;;;;4938666;28;20044;-71
2021/01/27 11:51:00;;;;;;;3.35;2.00;;;8.70;76.40;;;;;;4926225;28;20043;-70
2021/01/27 11:53:27;;;;;;;2.42;1.52;;;8.80;75.20;;;;;;4940109;28;20493;-70
2021/01/27 11:55:55;;;;;;;3.67;2.40;;;8.90;75.30;;;;;;4940885;28;20039;-70
2021/01/27 11:58:23;;;;;;;5.18;2.38;;;9.00;74.50;;;;;;4939537;28;20043;-70
2021/01/27 12:00:50;;;;;;;5.75;4.05;;;9.00;76.90;;;;;;4942683;28;20090;-71
2021/01/27 12:03:18;;;;;;;6.75;3.85;;;9.00;78.80;;;;;;4925403;28;20458;-70
2021/01/27 12:05:46;;;;;;;5.22;3.63;;;8.90;78.90;;;;;;4940928;28;20055;-70
2021/01/27 12:08:15;;;;;;;7.47;5.00;;;8.90;79.20;;;;;;4941396;28;20043;-70
2021/01/27 12:10:43;;;;;;;6.38;4.20;;;9.00;80.40;;;;;;4943022;28;20043;-70
2021/01/27 12:13:10;;;;;;;7.40;4.57;;;9.10;80.90;;;;;;4923931;28;20583;-70
2021/01/27 12:15:38;;;;;;;5.18;3.90;;;9.30;80.20;;;;;;4944462;28;20062;-70
2021/01/27 12:18:07;;;;;;;5.43;3.63;;;9.40;79.70;;;;;;4932202;28;20469;-71
2021/01/27 12:20:35;;;;;;;10.27;4.45;;;9.50;78.80;;;;;;4925247;29;20050;-70
2021/01/27 12:23:02;;;;;;;8.98;4.85;;;9.60;79.20;;;;;;4924281;28;20520;-70
2021/01/27 12:25:31;;;;;;;9.02;5.90;;;9.70;79.50;;;;;;4942079;28;20050;-70
2021/01/27 12:27:58;;;;;;;8.15;4.43;;;9.80;78.00;;;;;;4941291;28;20089;-70
2021/01/27 12:30:26;;;;;;;6.90;4.57;;;9.80;78.00;;;;;;4940713;28;20576;-70
2021/01/27 12:32:54;;;;;;;9.90;6.47;;;10.00;78.30;;;;;;4914923;28;20420;-70
2021/01/27 12:35:22;;;;;;;9.75;6.05;;;10.20;78.00;;;;;;4940633;28;20541;-72
2021/01/27 12:37:49;;;;;;;11.05;6.90;;;10.30;77.80;;;;;;4941076;28;20043;-70
2021/01/27 12:40:19;;;;;;;7.43;5.28;;;10.50;77.50;;;;;;4941102;28;20059;-71
2021/01/27 12:42:48;;;;;;;7.82;5.43;;;10.50;76.80;;;;;;4921766;29;20051;-72
2021/01/27 12:45:20;;;;;;;10.10;6.40;;;10.50;77.30;;;;;;4941484;28;20044;-71
2021/01/27 12:47:47;;;;;;;5.88;4.22;;;10.70;76.80;;;;;;4924515;29;20043;-71
2021/01/27 12:50:16;;;;;;;8.55;5.50;;;10.50;76.80;;;;;;4941314;28;20509;-71
2021/01/27 12:52:43;;;;;;;7.68;4.63;;;10.40;76.90;;;;;;4921618;29;20047;-71
2021/01/27 12:55:13;;;;;;;5.20;4.00;;;10.30;77.00;;;;;;4939511;28;20050;-70
2021/01/27 12:57:42;;;;;;;8.85;4.20;;;10.20;77.50;;;;;;4937118;28;20397;-70
2021/01/27 13:00:15;;;;;;;6.05;3.97;;;10.10;77.70;;;;;;4941030;28;20046;-70
2021/01/27 13:02:43;;;;;;;8.25;4.10;;;10.20;77.90;;;;;;4921739;29;20513;-70
2021/01/27 13:05:12;;;;;;;6.70;4.00;;;10.20;77.90;;;;;;4938941;28;20050;-70
2021/01/27 13:07:39;;;;;;;7.72;4.28;;;10.20;78.90;;;;;;4939524;28;20489;-70
2021/01/27 13:10:08;;;;;;;6.15;4.05;;;10.10;77.50;;;;;;4936656;28;20046;-70
2021/01/27 13:12:37;;;;;;;6.50;5.15;;;10.00;77.50;;;;;;4919619;28;20039;-70
2021/01/27 13:15:08;;;;;;;6.88;4.15;;;10.00;77.80;;;;;;4940423;28;20513;-70
2021/01/27 13:17:44;;;;;;;4.95;3.65;;;10.00;77.40;;;;;;4922438;28;20119;-71
2021/01/27 13:20:14;;;;;;;6.30;4.13;;;10.00;77.20;;;;;;4939381;28;20477;-71
2021/01/27 13:22:42;;;;;;;4.15;2.95;;;10.10;76.80;;;;;;4916591;29;20706;-70
2021/01/27 13:25:12;;;;;;;5.00;3.38;;;10.20;76.30;;;;;;4939983;28;20031;-71